Terminal Aerodrome Forecast
Issued by NWS

Home | Current Version | Previous Version | Text Only | Print | Product List | Glossary On
Versions: 1 2 3 4 5 6 7 8 9 10 11 12 13 14 15
000
FTUS43 KAPX 032016 AAA
TAFPLN
TAF AMD
KPLN 032016Z 0320/0418 10009KT P6SM FEW050 SCT250
     FM040000 00000KT P6SM SCT250
     FM040800 14003KT P6SM BKN220
     FM041400 18008KT P6SM SCT040 BKN100=

USA.gov is the U.S. government's official web portal to all federal, state and local government web resources and services.